sensor_id;sensor_type;location;lat;lon;timestamp;P1;durP1;ratioP1;P2;durP2;ratioP2
21245;SDS011;10781;50.928;4.440;2023-09-19T00:00:22;11.27;;;2.03;;
21245;SDS011;10781;50.928;4.440;2023-09-19T00:02:57;6.32;;;1.65;;
21245;SDS011;10781;50.928;4.440;2023-09-19T00:05:26;8.80;;;2.20;;
21245;SDS011;10781;50.928;4.440;2023-09-19T00:07:54;9.15;;;2.22;;
21245;SDS011;10781;50.928;4.440;2023-09-19T00:10:23;7.50;;;1.63;;
21245;SDS011;10781;50.928;4.440;2023-09-19T00:12:51;13.70;;;2.28;;
21245;SDS011;10781;50.928;4.440;2023-09-19T00:15:24;8.20;;;1.70;;
21245;SDS011;10781;50.928;4.440;2023-09-19T00:17:53;8.23;;;2.28;;
21245;SDS011;10781;50.928;4.440;2023-09-19T00:20:19;11.90;;;2.08;;
21245;SDS011;10781;50.928;4.440;2023-09-19T00:22:47;7.55;;;2.00;;
21245;SDS011;10781;50.928;4.440;2023-09-19T00:25:19;7.63;;;1.65;;
21245;SDS011;10781;50.928;4.440;2023-09-19T00:27:45;9.25;;;1.90;;
21245;SDS011;10781;50.928;4.440;2023-09-19T00:30:14;10.65;;;1.90;;
21245;SDS011;10781;50.928;4.440;2023-09-19T00:32:49;8.57;;;2.03;;
21245;SDS011;10781;50.928;4.440;2023-09-19T00:35:19;16.35;;;2.78;;
21245;SDS011;10781;50.928;4.440;2023-09-19T00:37:51;11.48;;;1.98;;
21245;SDS011;10781;50.928;4.440;2023-09-19T00:40:17;9.68;;;2.30;;
21245;SDS011;10781;50.928;4.440;2023-09-19T00:42:43;8.75;;;1.90;;
21245;SDS011;10781;50.928;4.440;2023-09-19T00:45:11;5.53;;;1.75;;
21245;SDS011;10781;50.928;4.440;2023-09-19T00:47:38;8.93;;;1.83;;
21245;SDS011;10781;50.928;4.440;2023-09-19T00:50:06;9.25;;;1.92;;
21245;SDS011;10781;50.928;4.440;2023-09-19T00:52:36;10.10;;;2.20;;
21245;SDS011;10781;50.928;4.440;2023-09-19T00:55:04;10.30;;;2.20;;
21245;SDS011;10781;50.928;4.440;2023-09-19T00:57:34;5.45;;;1.50;;
21245;SDS011;10781;50.928;4.440;2023-09-19T01:00:03;9.35;;;1.95;;
21245;SDS011;10781;50.928;4.440;2023-09-19T01:02:32;6.63;;;1.95;;
21245;SDS011;10781;50.928;4.440;2023-09-19T01:04:58;9.25;;;1.95;;
21245;SDS011;10781;50.928;4.440;2023-09-19T01:07:25;8.13;;;2.10;;
21245;SDS011;10781;50.928;4.440;2023-09-19T01:09:51;11.55;;;2.30;;
21245;SDS011;10781;50.928;4.440;2023-09-19T01:12:21;9.38;;;1.92;;
21245;SDS011;10781;50.928;4.440;2023-09-19T01:14:59;8.25;;;2.20;;
21245;SDS011;10781;50.928;4.440;2023-09-19T01:17:37;11.65;;;2.53;;
21245;SDS011;10781;50.928;4.440;2023-09-19T01:26:07;13.18;;;2.20;;
21245;SDS011;10781;50.928;4.440;2023-09-19T01:31:49;10.13;;;2.10;;
21245;SDS011;10781;50.928;4.440;2023-09-19T01:34:19;7.95;;;2.33;;
21245;SDS011;10781;50.928;4.440;2023-09-19T01:36:45;6.78;;;1.88;;
21245;SDS011;10781;50.928;4.440;2023-09-19T01:39:11;6.30;;;1.75;;
21245;SDS011;10781;50.928;4.440;2023-09-19T01:44:29;11.52;;;2.42;;
21245;SDS011;10781;50.928;4.440;2023-09-19T01:47:07;7.43;;;2.03;;
21245;SDS011;10781;50.928;4.440;2023-09-19T01:49:55;10.10;;;2.03;;
21245;SDS011;10781;50.928;4.440;2023-09-19T01:52:36;10.80;;;2.03;;
21245;SDS011;10781;50.928;4.440;2023-09-19T01:55:10;11.93;;;2.33;;
21245;SDS011;10781;50.928;4.440;2023-09-19T01:57:51;12.00;;;2.08;;
21245;SDS011;10781;50.928;4.440;2023-09-19T02:00:25;12.25;;;2.35;;
21245;SDS011;10781;50.928;4.440;2023-09-19T02:02:54;10.40;;;2.50;;
21245;SDS011;10781;50.928;4.440;2023-09-19T02:05:24;7.80;;;2.45;;
21245;SDS011;10781;50.928;4.440;2023-09-19T02:07:51;8.52;;;2.33;;
21245;SDS011;10781;50.928;4.440;2023-09-19T02:10:18;9.48;;;2.28;;
21245;SDS011;10781;50.928;4.440;2023-09-19T02:12:44;9.45;;;2.42;;
21245;SDS011;10781;50.928;4.440;2023-09-19T02:15:10;8.48;;;2.20;;
21245;SDS011;10781;50.928;4.440;2023-09-19T02:17:36;8.90;;;2.30;;
21245;SDS011;10781;50.928;4.440;2023-09-19T02:20:02;8.05;;;2.50;;
21245;SDS011;10781;50.928;4.440;2023-09-19T02:22:36;10.32;;;2.20;;
21245;SDS011;10781;50.928;4.440;2023-09-19T02:25:02;8.77;;;2.30;;
21245;SDS011;10781;50.928;4.440;2023-09-19T02:27:30;8.15;;;2.45;;
21245;SDS011;10781;50.928;4.440;2023-09-19T02:29:56;8.38;;;2.22;;
21245;SDS011;10781;50.928;4.440;2023-09-19T02:32:21;11.88;;;2.38;;
21245;SDS011;10781;50.928;4.440;2023-09-19T02:34:48;13.00;;;2.00;;
21245;SDS011;10781;50.928;4.440;2023-09-19T02:37:14;12.48;;;2.47;;
21245;SDS011;10781;50.928;4.440;2023-09-19T02:39:41;14.43;;;2.42;;
21245;SDS011;10781;50.928;4.440;2023-09-19T02:42:07;13.95;;;2.45;;
21245;SDS011;10781;50.928;4.440;2023-09-19T02:44:32;14.35;;;2.40;;
21245;SDS011;10781;50.928;4.440;2023-09-19T02:46:59;12.88;;;2.40;;
21245;SDS011;10781;50.928;4.440;2023-09-19T02:49:24;10.13;;;2.40;;
21245;SDS011;10781;50.928;4.440;2023-09-19T02:51:50;10.55;;;2.33;;
21245;SDS011;10781;50.928;4.440;2023-09-19T02:54:16;9.13;;;2.38;;
21245;SDS011;10781;50.928;4.440;2023-09-19T02:56:43;11.23;;;2.20;;
21245;SDS011;10781;50.928;4.440;2023-09-19T02:59:08;9.40;;;1.95;;
21245;SDS011;10781;50.928;4.440;2023-09-19T03:01:38;13.43;;;2.20;;
21245;SDS011;10781;50.928;4.440;2023-09-19T03:04:04;8.00;;;2.10;;
21245;SDS011;10781;50.928;4.440;2023-09-19T03:06:31;7.60;;;1.70;;
21245;SDS011;10781;50.928;4.440;2023-09-19T03:08:57;9.95;;;2.38;;
21245;SDS011;10781;50.928;4.440;2023-09-19T03:11:25;12.20;;;2.53;;
21245;SDS011;10781;50.928;4.440;2023-09-19T03:13:54;8.88;;;2.08;;
21245;SDS011;10781;50.928;4.440;2023-09-19T03:16:20;10.30;;;2.25;;
21245;SDS011;10781;50.928;4.440;2023-09-19T03:18:47;6.63;;;1.92;;
21245;SDS011;10781;50.928;4.440;2023-09-19T03:21:14;8.80;;;2.20;;
21245;SDS011;10781;50.928;4.440;2023-09-19T03:23:41;9.93;;;2.50;;
21245;SDS011;10781;50.928;4.440;2023-09-19T03:26:09;10.70;;;1.98;;
21245;SDS011;10781;50.928;4.440;2023-09-19T03:28:37;6.50;;;1.63;;
21245;SDS011;10781;50.928;4.440;2023-09-19T03:31:03;11.27;;;2.25;;
21245;SDS011;10781;50.928;4.440;2023-09-19T03:33:30;11.40;;;1.98;;
21245;SDS011;10781;50.928;4.440;2023-09-19T03:35:58;7.97;;;1.80;;
21245;SDS011;10781;50.928;4.440;2023-09-19T03:38:24;9.93;;;2.20;;
21245;SDS011;10781;50.928;4.440;2023-09-19T03:40:50;9.52;;;2.45;;
21245;SDS011;10781;50.928;4.440;2023-09-19T03:43:16;7.10;;;1.85;;
21245;SDS011;10781;50.928;4.440;2023-09-19T03:45:42;5.97;;;1.73;;
21245;SDS011;10781;50.928;4.440;2023-09-19T03:48:11;8.55;;;1.95;;
21245;SDS011;10781;50.928;4.440;2023-09-19T03:50:37;8.98;;;2.40;;
21245;SDS011;10781;50.928;4.440;2023-09-19T03:53:03;8.70;;;2.03;;
21245;SDS011;10781;50.928;4.440;2023-09-19T03:55:29;10.88;;;2.17;;
21245;SDS011;10781;50.928;4.440;2023-09-19T03:57:57;9.55;;;2.42;;
21245;SDS011;10781;50.928;4.440;2023-09-19T04:00:23;10.93;;;2.20;;
21245;SDS011;10781;50.928;4.440;2023-09-19T04:02:51;9.25;;;2.45;;
21245;SDS011;10781;50.928;4.440;2023-09-19T04:05:17;11.70;;;2.63;;
21245;SDS011;10781;50.928;4.440;2023-09-19T04:07:43;8.50;;;2.53;;
21245;SDS011;10781;50.928;4.440;2023-09-19T04:10:09;9.55;;;2.35;;
21245;SDS011;10781;50.928;4.440;2023-09-19T04:12:36;9.65;;;2.08;;
21245;SDS011;10781;50.928;4.440;2023-09-19T04:15:03;14.02;;;2.58;;
21245;SDS011;10781;50.928;4.440;2023-09-19T04:17:33;13.48;;;2.58;;
21245;SDS011;10781;50.928;4.440;2023-09-19T04:19:59;11.57;;;3.22;;
21245;SDS011;10781;50.928;4.440;2023-09-19T04:22:25;12.82;;;2.58;;
21245;SDS011;10781;50.928;4.440;2023-09-19T04:24:51;11.25;;;2.58;;
21245;SDS011;10781;50.928;4.440;2023-09-19T04:27:16;12.75;;;2.80;;
21245;SDS011;10781;50.928;4.440;2023-09-19T04:29:43;8.82;;;2.53;;
21245;SDS011;10781;50.928;4.440;2023-09-19T04:32:09;12.05;;;2.58;;
21245;SDS011;10781;50.928;4.440;2023-09-19T04:34:35;12.80;;;2.97;;
21245;SDS011;10781;50.928;4.440;2023-09-19T04:37:01;13.20;;;2.67;;
21245;SDS011;10781;50.928;4.440;2023-09-19T04:39:27;8.68;;;2.28;;
21245;SDS011;10781;50.928;4.440;2023-09-19T04:41:53;9.90;;;2.17;;
21245;SDS011;10781;50.928;4.440;2023-09-19T04:44:19;10.55;;;2.38;;
21245;SDS011;10781;50.928;4.440;2023-09-19T04:46:46;10.95;;;2.67;;
21245;SDS011;10781;50.928;4.440;2023-09-19T04:49:11;10.50;;;2.38;;
21245;SDS011;10781;50.928;4.440;2023-09-19T04:51:38;9.98;;;2.58;;
21245;SDS011;10781;50.928;4.440;2023-09-19T04:54:04;12.23;;;3.65;;
21245;SDS011;10781;50.928;4.440;2023-09-19T04:56:30;10.00;;;3.72;;
21245;SDS011;10781;50.928;4.440;2023-09-19T04:58:57;10.40;;;2.15;;
21245;SDS011;10781;50.928;4.440;2023-09-19T05:01:23;11.90;;;2.70;;
21245;SDS011;10781;50.928;4.440;2023-09-19T05:03:49;12.93;;;2.65;;
21245;SDS011;10781;50.928;4.440;2023-09-19T05:06:19;9.95;;;2.40;;
21245;SDS011;10781;50.928;4.440;2023-09-19T05:08:48;11.48;;;2.65;;
21245;SDS011;10781;50.928;4.440;2023-09-19T05:11:18;9.93;;;1.88;;
21245;SDS011;10781;50.928;4.440;2023-09-19T05:13:45;9.93;;;2.30;;
21245;SDS011;10781;50.928;4.440;2023-09-19T05:16:10;10.45;;;2.30;;
21245;SDS011;10781;50.928;4.440;2023-09-19T05:18:36;8.55;;;2.08;;
21245;SDS011;10781;50.928;4.440;2023-09-19T05:21:02;8.52;;;2.10;;
21245;SDS011;10781;50.928;4.440;2023-09-19T05:23:28;9.65;;;1.92;;
21245;SDS011;10781;50.928;4.440;2023-09-19T05:25:54;9.88;;;2.08;;
21245;SDS011;10781;50.928;4.440;2023-09-19T05:28:21;10.20;;;2.20;;
21245;SDS011;10781;50.928;4.440;2023-09-19T05:30:47;9.38;;;2.20;;
21245;SDS011;10781;50.928;4.440;2023-09-19T05:33:14;9.80;;;2.08;;
21245;SDS011;10781;50.928;4.440;2023-09-19T05:35:39;11.95;;;2.50;;
21245;SDS011;10781;50.928;4.440;2023-09-19T05:38:07;9.60;;;2.38;;
21245;SDS011;10781;50.928;4.440;2023-09-19T05:40:37;13.98;;;2.55;;
21245;SDS011;10781;50.928;4.440;2023-09-19T05:43:04;10.23;;;2.42;;
21245;SDS011;10781;50.928;4.440;2023-09-19T05:45:30;11.32;;;2.63;;
21245;SDS011;10781;50.928;4.440;2023-09-19T05:48:05;13.20;;;3.17;;
21245;SDS011;10781;50.928;4.440;2023-09-19T05:50:40;10.93;;;2.60;;
21245;SDS011;10781;50.928;4.440;2023-09-19T05:53:07;13.32;;;2.45;;
21245;SDS011;10781;50.928;4.440;2023-09-19T05:55:33;14.75;;;2.65;;
21245;SDS011;10781;50.928;4.440;2023-09-19T05:57:59;9.40;;;2.10;;
21245;SDS011;10781;50.928;4.440;2023-09-19T06:00:25;15.10;;;2.60;;
21245;SDS011;10781;50.928;4.440;2023-09-19T06:02:52;13.50;;;2.53;;
21245;SDS011;10781;50.928;4.440;2023-09-19T06:05:19;13.20;;;2.22;;
21245;SDS011;10781;50.928;4.440;2023-09-19T06:07:46;10.60;;;2.53;;
21245;SDS011;10781;50.928;4.440;2023-09-19T06:10:12;10.27;;;2.55;;
21245;SDS011;10781;50.928;4.440;2023-09-19T06:12:39;13.50;;;2.85;;
21245;SDS011;10781;50.928;4.440;2023-09-19T06:15:08;13.13;;;2.75;;
21245;SDS011;10781;50.928;4.440;2023-09-19T06:17:37;15.60;;;2.90;;
21245;SDS011;10781;50.928;4.440;2023-09-19T06:20:06;12.60;;;2.90;;
21245;SDS011;10781;50.928;4.440;2023-09-19T06:22:39;19.38;;;3.25;;
21245;SDS011;10781;50.928;4.440;2023-09-19T06:25:06;12.55;;;2.55;;
21245;SDS011;10781;50.928;4.440;2023-09-19T06:27:33;11.57;;;2.65;;
21245;SDS011;10781;50.928;4.440;2023-09-19T06:30:01;18.77;;;2.60;;
21245;SDS011;10781;50.928;4.440;2023-09-19T06:32:27;7.82;;;2.30;;
21245;SDS011;10781;50.928;4.440;2023-09-19T06:34:53;10.70;;;2.20;;
21245;SDS011;10781;50.928;4.440;2023-09-19T06:37:20;10.63;;;2.30;;
21245;SDS011;10781;50.928;4.440;2023-09-19T06:39:47;9.65;;;2.08;;
21245;SDS011;10781;50.928;4.440;2023-09-19T06:42:14;11.65;;;2.20;;
21245;SDS011;10781;50.928;4.440;2023-09-19T06:44:42;10.30;;;2.35;;
21245;SDS011;10781;50.928;4.440;2023-09-19T06:47:08;8.93;;;2.28;;
21245;SDS011;10781;50.928;4.440;2023-09-19T06:49:35;13.23;;;2.25;;
21245;SDS011;10781;50.928;4.440;2023-09-19T06:52:01;10.00;;;2.13;;
21245;SDS011;10781;50.928;4.440;2023-09-19T06:54:27;14.75;;;2.78;;
21245;SDS011;10781;50.928;4.440;2023-09-19T06:57:00;7.85;;;1.90;;
21245;SDS011;10781;50.928;4.440;2023-09-19T06:59:25;12.02;;;2.53;;
21245;SDS011;10781;50.928;4.440;2023-09-19T07:01:51;7.88;;;1.90;;
21245;SDS011;10781;50.928;4.440;2023-09-19T07:04:17;6.85;;;2.03;;
21245;SDS011;10781;50.928;4.440;2023-09-19T07:06:50;8.38;;;2.30;;
21245;SDS011;10781;50.928;4.440;2023-09-19T07:09:16;8.60;;;2.17;;
21245;SDS011;10781;50.928;4.440;2023-09-19T07:11:42;6.97;;;1.88;;
21245;SDS011;10781;50.928;4.440;2023-09-19T07:14:08;9.02;;;2.25;;
21245;SDS011;10781;50.928;4.440;2023-09-19T07:16:36;6.85;;;1.98;;
21245;SDS011;10781;50.928;4.440;2023-09-19T07:19:04;9.70;;;1.95;;
21245;SDS011;10781;50.928;4.440;2023-09-19T07:21:30;10.23;;;2.60;;
21245;SDS011;10781;50.928;4.440;2023-09-19T07:23:59;10.82;;;2.40;;
21245;SDS011;10781;50.928;4.440;2023-09-19T07:26:26;11.75;;;2.13;;
21245;SDS011;10781;50.928;4.440;2023-09-19T07:28:53;7.00;;;2.20;;
21245;SDS011;10781;50.928;4.440;2023-09-19T07:31:18;9.02;;;2.20;;
21245;SDS011;10781;50.928;4.440;2023-09-19T07:33:44;11.50;;;2.40;;
21245;SDS011;10781;50.928;4.440;2023-09-19T07:36:10;12.98;;;2.97;;
21245;SDS011;10781;50.928;4.440;2023-09-19T07:38:40;7.07;;;2.00;;
21245;SDS011;10781;50.928;4.440;2023-09-19T07:41:07;8.98;;;2.33;;
21245;SDS011;10781;50.928;4.440;2023-09-19T07:43:34;11.50;;;2.63;;
21245;SDS011;10781;50.928;4.440;2023-09-19T07:46:07;8.07;;;2.22;;
21245;SDS011;10781;50.928;4.440;2023-09-19T07:48:36;15.23;;;2.60;;
21245;SDS011;10781;50.928;4.440;2023-09-19T07:51:06;7.85;;;1.80;;
21245;SDS011;10781;50.928;4.440;2023-09-19T07:53:34;9.40;;;2.50;;
21245;SDS011;10781;50.928;4.440;2023-09-19T07:56:04;11.45;;;2.40;;
21245;SDS011;10781;50.928;4.440;2023-09-19T07:58:30;9.90;;;2.33;;
21245;SDS011;10781;50.928;4.440;2023-09-19T08:00:56;7.63;;;2.08;;
21245;SDS011;10781;50.928;4.440;2023-09-19T08:03:31;10.38;;;2.38;;
21245;SDS011;10781;50.928;4.440;2023-09-19T08:05:57;12.48;;;2.13;;
21245;SDS011;10781;50.928;4.440;2023-09-19T08:08:23;8.10;;;1.90;;
21245;SDS011;10781;50.928;4.440;2023-09-19T08:10:55;9.43;;;2.08;;
21245;SDS011;10781;50.928;4.440;2023-09-19T08:13:25;12.90;;;2.50;;
21245;SDS011;10781;50.928;4.440;2023-09-19T08:15:51;7.22;;;2.38;;
21245;SDS011;10781;50.928;4.440;2023-09-19T08:18:20;9.38;;;2.28;;
21245;SDS011;10781;50.928;4.440;2023-09-19T08:20:50;9.02;;;2.05;;
21245;SDS011;10781;50.928;4.440;2023-09-19T08:23:17;7.68;;;2.20;;
21245;SDS011;10781;50.928;4.440;2023-09-19T08:25:45;9.13;;;2.05;;
21245;SDS011;10781;50.928;4.440;2023-09-19T08:28:11;9.63;;;2.28;;
21245;SDS011;10781;50.928;4.440;2023-09-19T08:30:39;10.05;;;2.60;;
21245;SDS011;10781;50.928;4.440;2023-09-19T08:33:06;8.57;;;2.25;;
21245;SDS011;10781;50.928;4.440;2023-09-19T08:35:32;10.25;;;2.83;;
21245;SDS011;10781;50.928;4.440;2023-09-19T08:37:58;9.52;;;2.13;;
21245;SDS011;10781;50.928;4.440;2023-09-19T08:40:32;9.48;;;2.47;;
21245;SDS011;10781;50.928;4.440;2023-09-19T08:43:01;12.48;;;2.72;;
21245;SDS011;10781;50.928;4.440;2023-09-19T08:45:28;7.65;;;2.33;;
21245;SDS011;10781;50.928;4.440;2023-09-19T08:47:56;8.95;;;2.20;;
21245;SDS011;10781;50.928;4.440;2023-09-19T08:50:43;9.65;;;2.20;;
21245;SDS011;10781;50.928;4.440;2023-09-19T08:53:34;10.60;;;2.30;;
21245;SDS011;10781;50.928;4.440;2023-09-19T08:56:04;10.60;;;2.38;;
21245;SDS011;10781;50.928;4.440;2023-09-19T08:58:39;9.43;;;2.20;;
21245;SDS011;10781;50.928;4.440;2023-09-19T09:01:12;8.40;;;2.00;;
21245;SDS011;10781;50.928;4.440;2023-09-19T09:03:40;7.85;;;1.73;;
21245;SDS011;10781;50.928;4.440;2023-09-19T09:06:08;5.88;;;1.70;;
21245;SDS011;10781;50.928;4.440;2023-09-19T09:08:36;4.60;;;1.70;;
21245;SDS011;10781;50.928;4.440;2023-09-19T09:11:02;9.20;;;2.20;;
21245;SDS011;10781;50.928;4.440;2023-09-19T09:13:28;7.35;;;1.88;;
21245;SDS011;10781;50.928;4.440;2023-09-19T09:15:54;9.10;;;1.95;;
21245;SDS011;10781;50.928;4.440;2023-09-19T09:18:20;9.55;;;1.90;;
21245;SDS011;10781;50.928;4.440;2023-09-19T09:20:46;8.18;;;1.92;;
21245;SDS011;10781;50.928;4.440;2023-09-19T09:23:13;12.10;;;2.00;;
21245;SDS011;10781;50.928;4.440;2023-09-19T09:25:48;8.85;;;1.95;;
21245;SDS011;10781;50.928;4.440;2023-09-19T09:28:20;8.15;;;2.05;;
21245;SDS011;10781;50.928;4.440;2023-09-19T09:30:46;8.68;;;1.90;;
21245;SDS011;10781;50.928;4.440;2023-09-19T09:33:14;10.50;;;2.03;;
21245;SDS011;10781;50.928;4.440;2023-09-19T09:38:24;7.85;;;1.90;;
21245;SDS011;10781;50.928;4.440;2023-09-19T09:41:09;9.13;;;1.90;;
21245;SDS011;10781;50.928;4.440;2023-09-19T09:43:40;4.97;;;1.70;;
21245;SDS011;10781;50.928;4.440;2023-09-19T09:48:47;7.97;;;2.00;;
21245;SDS011;10781;50.928;4.440;2023-09-19T09:51:39;11.70;;;2.20;;
21245;SDS011;10781;50.928;4.440;2023-09-19T09:54:14;6.28;;;1.50;;
21245;SDS011;10781;50.928;4.440;2023-09-19T09:56:54;9.02;;;1.52;;
21245;SDS011;10781;50.928;4.440;2023-09-19T10:02:11;9.32;;;2.03;;
21245;SDS011;10781;50.928;4.440;2023-09-19T10:04:51;7.28;;;1.83;;
21245;SDS011;10781;50.928;4.440;2023-09-19T10:07:27;7.18;;;1.73;;
21245;SDS011;10781;50.928;4.440;2023-09-19T10:09:57;8.77;;;1.58;;
21245;SDS011;10781;50.928;4.440;2023-09-19T10:12:36;11.38;;;1.75;;
21245;SDS011;10781;50.928;4.440;2023-09-19T10:15:07;7.00;;;1.60;;
21245;SDS011;10781;50.928;4.440;2023-09-19T10:17:36;5.55;;;1.50;;
21245;SDS011;10781;50.928;4.440;2023-09-19T10:20:04;6.88;;;1.30;;
21245;SDS011;10781;50.928;4.440;2023-09-19T10:22:42;4.50;;;1.50;;
21245;SDS011;10781;50.928;4.440;2023-09-19T10:25:10;10.25;;;1.65;;
21245;SDS011;10781;50.928;4.440;2023-09-19T10:27:37;4.75;;;1.48;;
21245;SDS011;10781;50.928;4.440;2023-09-19T10:30:05;5.63;;;1.42;;
21245;SDS011;10781;50.928;4.440;2023-09-19T10:32:33;5.85;;;1.38;;
21245;SDS011;10781;50.928;4.440;2023-09-19T10:35:02;5.28;;;1.50;;
21245;SDS011;10781;50.928;4.440;2023-09-19T10:37:30;7.18;;;1.48;;
21245;SDS011;10781;50.928;4.440;2023-09-19T10:39:58;5.78;;;1.52;;
21245;SDS011;10781;50.928;4.440;2023-09-19T10:42:25;8.48;;;1.55;;
21245;SDS011;10781;50.928;4.440;2023-09-19T10:44:54;8.57;;;1.40;;
21245;SDS011;10781;50.928;4.440;2023-09-19T10:47:25;8.07;;;1.60;;
21245;SDS011;10781;50.928;4.440;2023-09-19T10:49:51;5.07;;;1.45;;
21245;SDS011;10781;50.928;4.440;2023-09-19T10:52:20;4.05;;;1.25;;
21245;SDS011;10781;50.928;4.440;2023-09-19T10:54:50;7.45;;;1.60;;
21245;SDS011;10781;50.928;4.440;2023-09-19T10:57:22;4.25;;;1.30;;
21245;SDS011;10781;50.928;4.440;2023-09-19T11:00:05;5.13;;;1.48;;
21245;SDS011;10781;50.928;4.440;2023-09-19T11:05:39;5.22;;;1.20;;
21245;SDS011;10781;50.928;4.440;2023-09-19T11:08:09;7.75;;;1.33;;
21245;SDS011;10781;50.928;4.440;2023-09-19T11:10:50;4.38;;;1.30;;
21245;SDS011;10781;50.928;4.440;2023-09-19T11:13:29;4.38;;;1.15;;
21245;SDS011;10781;50.928;4.440;2023-09-19T11:16:02;4.80;;;0.98;;
21245;SDS011;10781;50.928;4.440;2023-09-19T11:26:49;4.78;;;1.20;;
21245;SDS011;10781;50.928;4.440;2023-09-19T11:29:26;7.93;;;1.73;;
21245;SDS011;10781;50.928;4.440;2023-09-19T11:31:54;4.95;;;1.10;;
21245;SDS011;10781;50.928;4.440;2023-09-19T11:37:02;6.13;;;1.45;;
21245;SDS011;10781;50.928;4.440;2023-09-19T11:40:05;5.63;;;1.10;;
21245;SDS011;10781;50.928;4.440;2023-09-19T11:42:45;4.30;;;0.98;;
21245;SDS011;10781;50.928;4.440;2023-09-19T11:48:26;8.30;;;1.23;;
21245;SDS011;10781;50.928;4.440;2023-09-19T11:50:52;5.47;;;1.15;;
21245;SDS011;10781;50.928;4.440;2023-09-19T11:53:18;7.22;;;1.38;;
21245;SDS011;10781;50.928;4.440;2023-09-19T11:55:45;7.88;;;1.45;;
21245;SDS011;10781;50.928;4.440;2023-09-19T11:58:17;9.20;;;1.35;;
21245;SDS011;10781;50.928;4.440;2023-09-19T12:00:45;6.32;;;1.08;;
21245;SDS011;10781;50.928;4.440;2023-09-19T12:03:11;6.70;;;1.30;;
21245;SDS011;10781;50.928;4.440;2023-09-19T12:05:39;8.48;;;1.40;;
21245;SDS011;10781;50.928;4.440;2023-09-19T12:08:05;12.30;;;1.70;;
21245;SDS011;10781;50.928;4.440;2023-09-19T12:10:44;9.30;;;1.50;;
21245;SDS011;10781;50.928;4.440;2023-09-19T12:13:15;4.68;;;1.00;;
21245;SDS011;10781;50.928;4.440;2023-09-19T12:15:42;4.70;;;1.27;;
21245;SDS011;10781;50.928;4.440;2023-09-19T12:18:10;4.38;;;1.15;;
21245;SDS011;10781;50.928;4.440;2023-09-19T12:20:51;6.97;;;1.13;;
21245;SDS011;10781;50.928;4.440;2023-09-19T12:23:17;5.65;;;1.40;;
21245;SDS011;10781;50.928;4.440;2023-09-19T12:25:44;5.22;;;1.02;;
21245;SDS011;10781;50.928;4.440;2023-09-19T12:28:12;7.57;;;1.17;;
21245;SDS011;10781;50.928;4.440;2023-09-19T12:30:46;7.90;;;1.30;;
21245;SDS011;10781;50.928;4.440;2023-09-19T12:33:19;6.85;;;1.65;;
21245;SDS011;10781;50.928;4.440;2023-09-19T12:35:46;12.80;;;1.33;;
21245;SDS011;10781;50.928;4.440;2023-09-19T12:38:25;9.68;;;1.48;;
21245;SDS011;10781;50.928;4.440;2023-09-19T12:40:53;8.57;;;1.35;;
21245;SDS011;10781;50.928;4.440;2023-09-19T12:43:25;13.60;;;1.30;;
21245;SDS011;10781;50.928;4.440;2023-09-19T12:45:52;3.67;;;1.08;;
21245;SDS011;10781;50.928;4.440;2023-09-19T12:48:19;4.38;;;1.20;;
21245;SDS011;10781;50.928;4.440;2023-09-19T12:51:08;4.22;;;1.20;;
21245;SDS011;10781;50.928;4.440;2023-09-19T12:56:17;5.15;;;1.30;;
21245;SDS011;10781;50.928;4.440;2023-09-19T13:01:19;4.60;;;0.73;;
21245;SDS011;10781;50.928;4.440;2023-09-19T13:03:45;5.22;;;1.17;;
21245;SDS011;10781;50.928;4.440;2023-09-19T13:06:11;3.60;;;0.82;;
21245;SDS011;10781;50.928;4.440;2023-09-19T13:08:38;5.18;;;1.05;;
21245;SDS011;10781;50.928;4.440;2023-09-19T13:11:08;5.13;;;1.30;;
21245;SDS011;10781;50.928;4.440;2023-09-19T13:13:48;3.03;;;1.10;;
21245;SDS011;10781;50.928;4.440;2023-09-19T13:16:20;6.00;;;1.40;;
21245;SDS011;10781;50.928;4.440;2023-09-19T13:18:49;9.98;;;1.48;;
21245;SDS011;10781;50.928;4.440;2023-09-19T13:21:34;3.15;;;1.00;;
21245;SDS011;10781;50.928;4.440;2023-09-19T13:24:17;4.47;;;1.02;;
21245;SDS011;10781;50.928;4.440;2023-09-19T13:26:44;3.33;;;0.93;;
21245;SDS011;10781;50.928;4.440;2023-09-19T13:29:10;1.88;;;0.75;;
21245;SDS011;10781;50.928;4.440;2023-09-19T13:31:36;6.68;;;1.17;;
21245;SDS011;10781;50.928;4.440;2023-09-19T13:34:06;5.15;;;1.10;;
21245;SDS011;10781;50.928;4.440;2023-09-19T13:36:32;12.45;;;1.60;;
21245;SDS011;10781;50.928;4.440;2023-09-19T13:38:58;2.38;;;0.80;;
21245;SDS011;10781;50.928;4.440;2023-09-19T13:41:25;5.40;;;1.38;;
21245;SDS011;10781;50.928;4.440;2023-09-19T13:43:51;6.82;;;1.30;;
21245;SDS011;10781;50.928;4.440;2023-09-19T13:46:16;4.00;;;1.08;;
21245;SDS011;10781;50.928;4.440;2023-09-19T13:48:50;4.90;;;1.08;;
21245;SDS011;10781;50.928;4.440;2023-09-19T13:51:17;6.15;;;1.00;;
21245;SDS011;10781;50.928;4.440;2023-09-19T13:53:44;7.32;;;1.33;;
21245;SDS011;10781;50.928;4.440;2023-09-19T13:56:09;4.35;;;1.02;;
21245;SDS011;10781;50.928;4.440;2023-09-19T13:58:36;8.55;;;1.38;;
21245;SDS011;10781;50.928;4.440;2023-09-19T14:01:01;4.10;;;1.00;;
21245;SDS011;10781;50.928;4.440;2023-09-19T14:03:27;4.47;;;1.20;;
21245;SDS011;10781;50.928;4.440;2023-09-19T14:05:53;3.78;;;0.95;;
21245;SDS011;10781;50.928;4.440;2023-09-19T14:08:22;5.22;;;1.15;;
21245;SDS011;10781;50.928;4.440;2023-09-19T14:10:48;3.35;;;0.98;;
21245;SDS011;10781;50.928;4.440;2023-09-19T14:13:14;5.32;;;1.25;;
21245;SDS011;10781;50.928;4.440;2023-09-19T14:15:40;5.68;;;1.50;;
21245;SDS011;10781;50.928;4.440;2023-09-19T14:18:07;5.72;;;1.30;;
21245;SDS011;10781;50.928;4.440;2023-09-19T14:20:37;5.47;;;1.40;;
21245;SDS011;10781;50.928;4.440;2023-09-19T14:23:05;5.88;;;1.30;;
21245;SDS011;10781;50.928;4.440;2023-09-19T14:25:33;3.95;;;1.60;;
21245;SDS011;10781;50.928;4.440;2023-09-19T14:28:00;5.10;;;1.02;;
21245;SDS011;10781;50.928;4.440;2023-09-19T14:30:25;3.05;;;1.20;;
21245;SDS011;10781;50.928;4.440;2023-09-19T14:32:52;6.03;;;1.35;;
21245;SDS011;10781;50.928;4.440;2023-09-19T14:35:18;6.80;;;1.40;;
21245;SDS011;10781;50.928;4.440;2023-09-19T14:37:44;4.35;;;1.10;;
21245;SDS011;10781;50.928;4.440;2023-09-19T14:40:10;4.25;;;1.38;;
21245;SDS011;10781;50.928;4.440;2023-09-19T14:42:38;8.43;;;1.50;;
21245;SDS011;10781;50.928;4.440;2023-09-19T14:45:04;4.97;;;1.40;;
21245;SDS011;10781;50.928;4.440;2023-09-19T14:47:31;3.78;;;1.23;;
21245;SDS011;10781;50.928;4.440;2023-09-19T14:49:59;5.40;;;1.38;;
21245;SDS011;10781;50.928;4.440;2023-09-19T14:52:25;5.15;;;1.35;;
21245;SDS011;10781;50.928;4.440;2023-09-19T14:54:53;5.13;;;1.20;;
21245;SDS011;10781;50.928;4.440;2023-09-19T14:57:19;3.83;;;1.48;;
21245;SDS011;10781;50.928;4.440;2023-09-19T14:59:45;4.70;;;1.60;;
21245;SDS011;10781;50.928;4.440;2023-09-19T15:02:11;5.57;;;1.45;;
21245;SDS011;10781;50.928;4.440;2023-09-19T15:04:36;6.13;;;1.60;;
21245;SDS011;10781;50.928;4.440;2023-09-19T15:07:05;6.20;;;1.48;;
21245;SDS011;10781;50.928;4.440;2023-09-19T15:09:31;5.38;;;1.60;;
21245;SDS011;10781;50.928;4.440;2023-09-19T15:11:58;5.30;;;1.38;;
21245;SDS011;10781;50.928;4.440;2023-09-19T15:14:24;6.53;;;1.42;;
21245;SDS011;10781;50.928;4.440;2023-09-19T15:16:54;5.60;;;1.60;;
21245;SDS011;10781;50.928;4.440;2023-09-19T15:19:20;7.72;;;1.90;;
21245;SDS011;10781;50.928;4.440;2023-09-19T15:21:47;5.18;;;1.63;;
21245;SDS011;10781;50.928;4.440;2023-09-19T15:24:13;7.05;;;1.73;;
21245;SDS011;10781;50.928;4.440;2023-09-19T15:26:39;4.88;;;1.60;;
21245;SDS011;10781;50.928;4.440;2023-09-19T15:29:05;7.32;;;1.70;;
21245;SDS011;10781;50.928;4.440;2023-09-19T15:31:32;5.63;;;1.60;;
21245;SDS011;10781;50.928;4.440;2023-09-19T15:33:58;6.57;;;1.90;;